Time;durP1;ratioP1;P1;durP2;ratioP2;P2;SDS_P1;SDS_P2;PMS_P1;PMS_P2;Temp;Humidity;BMP_temperature;BMP_pressure;BME280_temperature;BME280_humidity;BME280_pressure;Samples;Min_cycle;Max_cycle;Signal;HPM_P1;HPM_P2
2024/02/11 00:01:57;;;;;;;;;;;;;;;15.26;57.24;98986.56;5013826;28;20391;-84
2024/02/11 00:04:23;;;;;;;;;;;;;;;15.29;57.09;98980.00;4996227;28;19920;-84
2024/02/11 00:06:48;;;;;;;;;;;;;;;15.25;57.27;98979.63;4996324;28;20063;-84
2024/02/11 00:09:14;;;;;;;;;;;;;;;15.28;57.25;98994.34;5013920;28;20004;-84
2024/02/11 00:11:39;;;;;;;;;;;;;;;15.26;57.70;98993.75;5001799;28;19914;-84
2024/02/11 00:14:04;;;;;;;;;;;;;;;15.24;57.23;98996.63;5027630;28;19972;-84
2024/02/11 00:16:30;;;;;;;;;;;;;;;15.26;57.13;98996.41;4996299;28;19921;-84
2024/02/11 00:18:56;;;;;;;;;;;;;;;15.26;57.63;99004.38;5014493;28;19921;-84
2024/02/11 00:21:22;;;;;;;;;;;;;;;15.26;57.19;99002.53;4996258;28;20390;-84
2024/02/11 00:23:47;;;;;;;;;;;;;;;15.25;57.29;98995.59;4996090;28;19920;-84
2024/02/11 00:26:13;;;;;;;;;;;;;;;15.27;56.92;98987.41;5013619;28;19918;-84
2024/02/11 00:28:38;;;;;;;;;;;;;;;15.29;56.73;98961.38;5013486;28;19914;-84
2024/02/11 00:31:03;;;;;;;;;;;;;;;15.31;56.91;98942.53;4995965;28;19968;-84
2024/02/11 00:33:29;;;;;;;;;;;;;;;15.26;57.39;98941.38;5013384;28;20283;-84
2024/02/11 00:36:00;;;;;;;;;;;;;;;15.24;57.84;98958.59;5013547;28;20047;-84
2024/02/11 00:38:30;;;;;;;;;;;;;;;15.24;57.58;98982.53;5013351;28;20055;-84
2024/02/11 00:40:55;;;;;;;;;;;;;;;15.28;56.89;98989.03;4995745;28;19960;-84
2024/02/11 00:43:21;;;;;;;;;;;;;;;15.28;56.95;98999.66;5013226;28;20396;-83
2024/02/11 00:45:46;;;;;;;;;;;;;;;15.26;56.81;98997.22;5013158;28;19917;-84
2024/02/11 00:48:12;;;;;;;;;;;;;;;15.27;57.26;98993.53;5013290;28;20370;-84
2024/02/11 00:50:37;;;;;;;;;;;;;;;15.24;57.75;98985.19;4995542;28;19914;-84
2024/02/11 00:53:05;;;;;;;;;;;;;;;15.26;57.34;98985.78;5013060;28;19917;-84
2024/02/11 00:55:31;;;;;;;;;;;;;;;15.26;57.35;98975.13;5012910;28;19983;-84
2024/02/11 00:57:56;;;;;;;;;;;;;;;15.27;57.51;98966.13;4995527;28;20375;-84
2024/02/11 01:00:22;;;;;;;;;;;;;;;15.28;57.54;98957.09;5012875;28;20378;-84
2024/02/11 01:02:47;;;;;;;;;;;;;;;15.27;57.79;98950.16;4995179;28;19918;-84
2024/02/11 01:05:12;;;;;;;;;;;;;;;15.25;58.00;98945.06;5012829;28;19914;-84
2024/02/11 01:07:38;;;;;;;;;;;;;;;15.29;56.92;98941.97;5012829;28;20306;-84
2024/02/11 01:10:04;;;;;;;;;;;;;;;15.27;57.43;98936.88;5012667;28;19954;-84
2024/02/11 01:12:29;;;;;;;;;;;;;;;15.26;57.73;98922.75;5012846;28;19917;-84
2024/02/11 01:14:55;;;;;;;;;;;;;;;15.27;57.58;98918.25;5012931;28;19913;-84
2024/02/11 01:17:23;;;;;;;;;;;;;;;15.27;57.57;98919.06;4995261;28;19921;-84
2024/02/11 01:19:48;;;;;;;;;;;;;;;15.25;57.32;98902.50;4995405;28;19913;-84
2024/02/11 01:22:13;;;;;;;;;;;;;;;15.25;57.23;98915.81;4995186;28;19913;-84
2024/02/11 01:24:39;;;;;;;;;;;;;;;15.24;57.43;98906.22;5012826;28;19913;-84
2024/02/11 01:27:04;;;;;;;;;;;;;;;15.26;57.00;98912.13;4995089;28;19917;-84
2024/02/11 01:29:29;;;;;;;;;;;;;;;15.26;57.17;98912.13;5013082;28;19917;-84
2024/02/11 01:31:55;;;;;;;;;;;;;;;15.26;56.95;98917.44;5012663;28;19917;-84
2024/02/11 01:34:20;;;;;;;;;;;;;;;15.29;57.37;98910.03;5013088;28;19913;-84
2024/02/11 01:36:45;;;;;;;;;;;;;;;15.29;57.13;98905.53;5012479;28;19921;-84
2024/02/11 01:39:11;;;;;;;;;;;;;;;15.33;56.62;98903.25;4994998;28;20445;-84
2024/02/11 01:41:37;;;;;;;;;;;;;;;15.31;57.08;98903.47;4994961;28;19921;-84
2024/02/11 01:44:03;;;;;;;;;;;;;;;15.32;57.38;98910.41;4994577;28;19921;-84
2024/02/11 01:46:28;;;;;;;;;;;;;;;15.33;56.99;98911.22;4994465;28;19914;-84
2024/02/11 01:48:54;;;;;;;;;;;;;;;15.31;57.63;98902.66;5012085;28;19959;-83
2024/02/11 01:51:20;;;;;;;;;;;;;;;15.29;57.31;98907.38;4994503;28;20361;-84
2024/02/11 01:53:48;;;;;;;;;;;;;;;15.34;57.24;98895.03;5011920;28;19917;-84
2024/02/11 01:56:14;;;;;;;;;;;;;;;15.32;57.46;98897.09;4994159;28;20004;-84
2024/02/11 01:58:42;;;;;;;;;;;;;;;15.35;57.02;98890.53;5011956;28;20027;-84
2024/02/11 02:01:08;;;;;;;;;;;;;;;15.37;56.63;98889.25;5012243;28;19914;-83
2024/02/11 02:03:34;;;;;;;;;;;;;;;15.36;56.79;98884.16;5012172;28;19920;-84
2024/02/11 02:06:00;;;;;;;;;;;;;;;15.33;57.30;98884.63;5011974;28;19914;-84
2024/02/11 02:08:26;;;;;;;;;;;;;;;15.31;57.67;98886.69;5011762;28;19913;-84
2024/02/11 02:10:51;;;;;;;;;;;;;;;15.31;57.75;98884.03;4994668;28;20028;-84
2024/02/11 02:13:17;;;;;;;;;;;;;;;15.33;57.23;98892.59;4994221;28;19918;-84
2024/02/11 02:15:42;;;;;;;;;;;;;;;15.32;57.72;98894.44;5011824;28;19918;-84
2024/02/11 02:18:08;;;;;;;;;;;;;;;15.30;57.68;98893.03;5011933;28;20314;-84
2024/02/11 02:20:33;;;;;;;;;;;;;;;15.32;57.23;98883.00;5011796;28;20311;-84
2024/02/11 02:22:58;;;;;;;;;;;;;;;15.27;58.33;98881.00;5011977;28;20391;-83
2024/02/11 02:25:24;;;;;;;;;;;;;;;15.28;57.77;98869.34;5011956;28;19909;-84
2024/02/11 02:27:49;;;;;;;;;;;;;;;15.25;58.38;98870.59;5011895;28;19996;-84
2024/02/11 02:30:15;;;;;;;;;;;;;;;15.26;57.92;98864.25;4994003;28;19963;-84
2024/02/11 02:32:40;;;;;;;;;;;;;;;15.30;57.63;98864.59;4993804;28;19971;-84
2024/02/11 02:35:06;;;;;;;;;;;;;;;15.29;58.36;98873.63;5011576;28;19913;-84
2024/02/11 02:37:31;;;;;;;;;;;;;;;15.32;57.39;98877.69;5011892;28;19914;-83
2024/02/11 02:39:56;;;;;;;;;;;;;;;15.30;57.73;98885.88;5013883;28;19913;-84
2024/02/11 02:42:22;;;;;;;;;;;;;;;15.30;57.48;98879.75;4997950;28;19920;-84
2024/02/11 02:44:47;;;;;;;;;;;;;;;15.31;57.65;98870.72;5015248;28;20317;-84
2024/02/11 02:47:13;;;;;;;;;;;;;;;15.33;57.45;98880.13;4997596;28;19917;-84
2024/02/11 02:49:38;;;;;;;;;;;;;;;15.29;57.97;98878.94;5015266;28;20438;-84
2024/02/11 02:52:06;;;;;;;;;;;;;;;15.32;57.81;98889.13;4997598;28;19917;-84
2024/02/11 02:54:32;;;;;;;;;;;;;;;15.32;57.76;98883.81;4997507;28;19913;-84
2024/02/11 02:56:58;;;;;;;;;;;;;;;15.35;57.63;98895.84;5015029;28;19913;-84
2024/02/11 02:59:24;;;;;;;;;;;;;;;15.29;57.77;98897.56;5015077;28;20353;-84
2024/02/11 03:01:49;;;;;;;;;;;;;;;15.31;58.26;98915.94;5014992;28;19914;-84
2024/02/11 03:04:16;;;;;;;;;;;;;;;15.30;57.85;98911.66;4997515;28;19944;-84
2024/02/11 03:06:42;;;;;;;;;;;;;;;15.27;57.79;98911.06;4997529;28;19914;-84
2024/02/11 03:09:08;;;;;;;;;;;;;;;15.34;57.47;98905.69;5015027;28;19925;-83
2024/02/11 03:11:34;;;;;;;;;;;;;;;15.33;57.80;98911.22;5014864;28;19920;-84
2024/02/11 03:13:59;;;;;;;;;;;;;;;15.36;57.70;98906.25;4997337;28;19914;-84
2024/02/11 03:16:24;;;;;;;;;;;;;;;15.38;57.39;98904.19;5014959;28;20414;-84
2024/02/11 03:18:50;;;;;;;;;;;;;;;15.34;57.66;98920.81;5014788;28;19960;-84
2024/02/11 03:21:15;;;;;;;;;;;;;;;15.37;57.72;98925.69;5014851;28;19972;-84
2024/02/11 03:23:41;;;;;;;;;;;;;;;15.44;57.06;98931.75;5014707;28;20406;-84
2024/02/11 03:26:10;;;;;;;;;;;;;;;15.44;57.00;98924.56;5014829;28;19955;-84
2024/02/11 03:28:38;;;;;;;;;;;;;;;15.41;57.82;98933.00;5014724;28;19992;-84
2024/02/11 03:31:07;;;;;;;;;;;;;;;15.45;57.26;98930.72;4996957;28;19913;-84
2024/02/11 03:33:33;;;;;;;;;;;;;;;15.46;57.18;98930.47;4996818;28;20306;-84
2024/02/11 03:35:58;;;;;;;;;;;;;;;15.45;57.30;98936.03;5014387;28;19914;-84
2024/02/11 03:38:23;;;;;;;;;;;;;;;15.45;57.60;98936.03;4996862;28;20323;-84
2024/02/11 03:40:50;;;;;;;;;;;;;;;15.47;57.28;98936.63;5014463;28;19914;-84
2024/02/11 03:43:15;;;;;;;;;;;;;;;15.47;57.50;98939.28;5014811;28;19918;-83
2024/02/11 03:45:40;;;;;;;;;;;;;;;15.47;57.09;98941.94;4996950;28;20366;-84
2024/02/11 03:48:07;;;;;;;;;;;;;;;15.47;56.98;98945.41;5014463;28;19913;-83
2024/02/11 03:50:32;;;;;;;;;;;;;;;15.46;57.19;98935.81;4995608;28;20449;-84
2024/02/11 03:52:58;;;;;;;;;;;;;;;15.49;57.06;98923.91;5014036;28;19917;-84
2024/02/11 03:55:23;;;;;;;;;;;;;;;15.50;57.06;98918.34;5014238;28;19917;-84
2024/02/11 03:57:48;;;;;;;;;;;;;;;15.49;57.07;98924.72;5014570;28;19914;-84
2024/02/11 04:00:22;;;;;;;;;;;;;;;15.47;56.76;98918.00;5014362;28;19914;-84
2024/02/11 04:02:47;;;;;;;;;;;;;;;15.47;56.79;98907.34;5014540;28;20422;-84
2024/02/11 04:05:15;;;;;;;;;;;;;;;15.46;57.37;98900.41;5014387;28;19913;-84
2024/02/11 04:07:45;;;;;;;;;;;;;;;15.51;56.54;98901.34;5014113;28;19949;-84
2024/02/11 04:10:18;;;;;;;;;;;;;;;15.45;57.11;98899.59;5014086;28;20004;-84
2024/02/11 04:12:44;;;;;;;;;;;;;;;15.42;57.19;98900.03;5014173;28;19924;-83
2024/02/11 04:15:15;;;;;;;;;;;;;;;15.48;57.44;98901.00;4996160;28;20303;-84
2024/02/11 04:17:40;;;;;;;;;;;;;;;15.50;56.97;98896.25;4996202;28;20279;-83
2024/02/11 04:20:15;;;;;;;;;;;;;;;15.44;57.09;98879.34;5013512;28;20008;-84
2024/02/11 04:22:41;;;;;;;;;;;;;;;15.44;56.87;98862.56;5013872;28;19920;-84
2024/02/11 04:25:08;;;;;;;;;;;;;;;15.47;56.96;98843.50;5013599;28;20382;-83
2024/02/11 04:27:40;;;;;;;;;;;;;;;15.41;57.48;98841.75;4995853;28;20409;-83
2024/02/11 04:30:07;;;;;;;;;;;;;;;15.40;57.14;98832.13;4995775;28;19948;-84
2024/02/11 04:32:32;;;;;;;;;;;;;;;15.42;57.11;98827.41;5013267;28;19971;-84
2024/02/11 04:34:58;;;;;;;;;;;;;;;15.35;57.72;98818.72;4995727;28;19952;-84
2024/02/11 04:37:24;;;;;;;;;;;;;;;15.33;57.73;98818.94;5013166;28;20436;-84
2024/02/11 04:39:49;;;;;;;;;;;;;;;15.32;57.61;98811.19;5013105;28;20007;-84
2024/02/11 04:42:16;;;;;;;;;;;;;;;15.34;57.69;98804.59;5013286;28;20001;-84
2024/02/11 04:44:41;;;;;;;;;;;;;;;15.32;57.69;98801.34;5013027;28;19906;-84
2024/02/11 04:47:07;;;;;;;;;;;;;;;15.32;57.49;98816.50;5013179;28;19920;-84
2024/02/11 04:49:35;;;;;;;;;;;;;;;15.26;57.57;98811.06;5013040;28;19913;-83
2024/02/11 04:52:01;;;;;;;;;;;;;;;15.27;57.90;98810.00;5013005;28;19918;-84
2024/02/11 04:54:27;;;;;;;;;;;;;;;15.29;57.53;98816.94;5013089;28;19925;-84
2024/02/11 04:56:53;;;;;;;;;;;;;;;15.24;57.81;98823.75;4995502;28;19913;-83
2024/02/11 04:59:18;;;;;;;;;;;;;;;15.26;57.80;98840.31;5013195;28;19913;-84
2024/02/11 05:01:44;;;;;;;;;;;;;;;15.26;57.77;98848.28;5012778;28;19920;-84
2024/02/11 05:04:10;;;;;;;;;;;;;;;15.22;57.71;98859.59;5013117;28;19913;-83
2024/02/11 05:06:40;;;;;;;;;;;;;;;15.23;57.75;98853.25;5013261;28;19914;-84
2024/02/11 05:09:07;;;;;;;;;;;;;;;15.26;57.34;98861.59;5000163;28;19929;-84
2024/02/11 05:11:32;;;;;;;;;;;;;;;15.26;57.85;98866.09;5013282;28;19937;-84
2024/02/11 05:13:58;;;;;;;;;;;;;;;15.26;57.73;98871.41;5013448;28;20387;-84
2024/02/11 05:16:27;;;;;;;;;;;;;;;15.31;57.46;98860.09;5017955;28;19920;-83
2024/02/11 05:18:53;;;;;;;;;;;;;;;15.35;57.25;98863.94;5029025;28;19920;-82
2024/02/11 05:21:19;;;;;;;;;;;;;;;15.34;57.19;98862.31;5013243;28;20309;-84
2024/02/11 05:23:47;;;;;;;;;;;;;;;15.36;57.24;98862.88;5013204;28;20414;-83
2024/02/11 05:26:16;;;;;;;;;;;;;;;15.35;57.02;98863.94;5011693;28;19921;-84
2024/02/11 05:28:43;;;;;;;;;;;;;;;15.39;57.33;98878.41;5012857;28;19971;-83
2024/02/11 05:31:11;;;;;;;;;;;;;;;15.39;56.98;98876.56;5012720;28;19921;-84
2024/02/11 05:33:37;;;;;;;;;;;;;;;15.39;56.64;98873.91;5011415;28;19924;-84
2024/02/11 05:36:07;;;;;;;;;;;;;;;15.42;57.48;98862.00;5012824;28;19917;-84
2024/02/11 05:38:39;;;;;;;;;;;;;;;15.42;56.81;98864.66;5011495;28;19913;-84
2024/02/11 05:41:04;;;;;;;;;;;;;;;15.47;56.72;98881.56;5011357;28;19964;-83
2024/02/11 05:43:29;;;;;;;;;;;;;;;15.41;57.13;98863.84;5010982;28;19949;-84
2024/02/11 05:45:55;;;;;;;;;;;;;;;15.41;56.99;98871.00;5010811;28;20381;-83
2024/02/11 05:48:20;;;;;;;;;;;;;;;15.37;57.45;98875.97;5012161;28;19914;-84
2024/02/11 05:50:46;;;;;;;;;;;;;;;15.38;57.19;98890.06;5011969;28;19919;-84
2024/02/11 05:53:11;;;;;;;;;;;;;;;15.37;57.44;98883.94;5011881;28;20411;-84
2024/02/11 05:55:38;;;;;;;;;;;;;;;15.41;56.82;98894.94;5010759;28;20385;-84
2024/02/11 05:58:06;;;;;;;;;;;;;;;15.39;57.33;98897.03;5010831;28;19914;-84
2024/02/11 06:00:31;;;;;;;;;;;;;;;15.40;57.05;98888.00;5012169;28;19914;-84
2024/02/11 06:02:57;;;;;;;;;;;;;;;15.41;57.34;98885.13;5012160;28;19917;-84
2024/02/11 06:05:23;;;;;;;;;;;;;;;15.46;57.01;98900.41;5012170;28;19963;-83
2024/02/11 06:07:54;;;;;;;;;;;;;;;15.43;57.36;98884.91;5012029;28;19937;-84
2024/02/11 06:10:20;;;;;;;;;;;;;;;15.47;57.00;98897.53;5010543;28;20373;-84
2024/02/11 06:12:46;;;;;;;;;;;;;;;15.44;57.48;98897.16;5011897;28;19944;-84
2024/02/11 06:15:13;;;;;;;;;;;;;;;15.45;57.24;98898.78;5013405;28;20477;-84
2024/02/11 06:17:39;;;;;;;;;;;;;;;15.45;56.88;98918.22;5014757;28;19928;-84
2024/02/11 06:20:15;;;;;;;;;;;;;;;15.47;56.91;98916.13;5016034;28;19992;-84
2024/02/11 06:22:42;;;;;;;;;;;;;;;15.48;57.10;98915.09;5014627;28;19914;-84
2024/02/11 06:25:08;;;;;;;;;;;;;;;15.51;56.81;98919.97;5016051;28;19914;-84
2024/02/11 06:27:33;;;;;;;;;;;;;;;15.49;56.78;98911.41;5016306;28;19957;-84
2024/02/11 06:29:59;;;;;;;;;;;;;;;15.52;56.58;98908.28;5015744;28;19921;-84
2024/02/11 06:32:24;;;;;;;;;;;;;;;15.56;56.28;98909.47;5015407;28;19952;-84
2024/02/11 06:34:52;;;;;;;;;;;;;;;15.52;56.77;98910.16;5015632;28;19914;-83
2024/02/11 06:37:17;;;;;;;;;;;;;;;15.53;56.53;98898.47;5014411;28;19920;-84
2024/02/11 06:39:44;;;;;;;;;;;;;;;15.59;56.70;98894.94;5015814;28;19996;-83
2024/02/11 06:42:09;;;;;;;;;;;;;;;15.52;56.64;98891.53;5015345;28;20009;-84
2024/02/11 06:44:35;;;;;;;;;;;;;;;15.53;56.91;98901.13;5014095;28;20402;-83
2024/02/11 06:47:01;;;;;;;;;;;;;;;15.53;57.01;98904.59;5014519;28;19914;-84
2024/02/11 06:49:26;;;;;;;;;;;;;;;15.53;56.51;98893.97;5015376;28;19918;-84
2024/02/11 06:51:51;;;;;;;;;;;;;;;15.52;57.10;98889.66;5015385;28;20931;-84
2024/02/11 06:54:19;;;;;;;;;;;;;;;15.57;56.90;98889.00;5015546;28;20365;-83
2024/02/11 06:56:47;;;;;;;;;;;;;;;15.54;56.52;98868.97;5015226;28;20306;-83
2024/02/11 06:59:13;;;;;;;;;;;;;;;15.58;56.78;98870.16;5015325;28;19996;-83
2024/02/11 07:01:40;;;;;;;;;;;;;;;15.59;56.75;98868.31;5015249;28;20408;-83
2024/02/11 07:04:08;;;;;;;;;;;;;;;15.64;56.64;98857.84;5015066;28;19956;-84
2024/02/11 07:06:33;;;;;;;;;;;;;;;15.62;56.89;98862.59;5013709;28;19917;-84
2024/02/11 07:08:58;;;;;;;;;;;;;;;15.64;56.42;98857.03;5014736;28;19927;-84
2024/02/11 07:11:24;;;;;;;;;;;;;;;15.66;56.78;98860.28;5015062;28;19913;-83
2024/02/11 07:13:49;;;;;;;;;;;;;;;15.71;56.51;98847.91;5015069;28;20303;-84
2024/02/11 07:16:17;;;;;;;;;;;;;;;15.74;56.80;98866.09;5015345;28;19955;-83
2024/02/11 07:18:43;;;;;;;;;;;;;;;15.77;56.76;98878.13;5015425;28;20314;-83
2024/02/11 07:21:11;;;;;;;;;;;;;;;15.85;56.20;98867.16;4997482;28;19913;-83
2024/02/11 07:23:37;;;;;;;;;;;;;;;15.86;56.29;98893.53;5015081;28;19914;-83
2024/02/11 07:26:02;;;;;;;;;;;;;;;15.91;56.37;98898.19;4997225;28;19924;-83
2024/02/11 07:28:27;;;;;;;;;;;;;;;15.84;56.94;98905.44;5015126;28;20333;-83
2024/02/11 07:30:52;;;;;;;;;;;;;;;15.87;56.83;98920.97;4997328;28;20310;-83
2024/02/11 07:33:18;;;;;;;;;;;;;;;15.83;56.95;98927.78;5014617;28;19924;-83
2024/02/11 07:35:44;;;;;;;;;;;;;;;15.77;56.85;98937.50;5014908;28;19914;-83
2024/02/11 07:38:10;;;;;;;;;;;;;;;15.77;57.05;98932.16;5014872;28;20371;-83
2024/02/11 07:40:35;;;;;;;;;;;;;;;15.75;56.98;98944.06;4997199;28;19914;-83
2024/02/11 07:43:01;;;;;;;;;;;;;;;15.75;57.04;98962.72;5014316;28;19913;-83
2024/02/11 07:45:26;;;;;;;;;;;;;;;15.76;56.97;98949.19;5014384;28;20371;-83
2024/02/11 07:47:51;;;;;;;;;;;;;;;15.74;56.81;98955.75;4996828;28;20004;-84
2024/02/11 07:50:17;;;;;;;;;;;;;;;15.67;57.24;98966.50;5014316;28;20307;-84
2024/02/11 07:52:46;;;;;;;;;;;;;;;15.62;56.68;98957.56;5014124;28;19952;-83
2024/02/11 07:55:12;;;;;;;;;;;;;;;15.59;57.06;98966.78;5014382;28;19953;-84
2024/02/11 07:57:38;;;;;;;;;;;;;;;15.60;56.99;98970.25;4996553;28;19964;-84
2024/02/11 08:00:04;;;;;;;;;;;;;;;15.58;56.72;98963.31;5014152;28;19921;-83
2024/02/11 08:02:32;;;;;;;;;;;;;;;15.60;56.91;98967.59;4996441;28;20374;-83
2024/02/11 08:04:57;;;;;;;;;;;;;;;15.62;56.90;98976.19;5013989;28;19920;-83
2024/02/11 08:07:22;;;;;;;;;;;;;;;15.55;57.08;98984.19;5014085;28;20063;-83
2024/02/11 08:09:47;;;;;;;;;;;;;;;15.55;57.09;98976.22;5013735;28;19921;-83
2024/02/11 08:12:13;;;;;;;;;;;;;;;15.54;57.35;98979.91;4995948;28;19925;-84
2024/02/11 08:14:38;;;;;;;;;;;;;;;15.51;57.12;98981.16;5013787;28;19921;-84
2024/02/11 08:17:03;;;;;;;;;;;;;;;15.55;57.02;98977.03;5013978;28;19913;-83
2024/02/11 08:19:28;;;;;;;;;;;;;;;15.53;58.23;98980.94;5013996;28;19920;-84
2024/02/11 08:21:54;;;;;;;;;;;;;;;15.57;57.96;98987.44;5013584;28;19949;-84
2024/02/11 08:24:20;;;;;;;;;;;;;;;15.56;59.03;98983.16;4995909;28;19913;-84
2024/02/11 08:26:47;;;;;;;;;;;;;;;15.60;58.83;98989.69;5013632;28;20305;-84
2024/02/11 08:29:13;;;;;;;;;;;;;;;15.65;58.98;98984.53;4996044;28;20389;-84
2024/02/11 08:31:38;;;;;;;;;;;;;;;15.69;58.41;98980.38;5013571;28;19920;-83
2024/02/11 08:34:03;;;;;;;;;;;;;;;15.69;58.88;98977.72;5013470;28;20008;-83
2024/02/11 08:36:28;;;;;;;;;;;;;;;15.68;58.96;98985.94;4995399;28;19920;-83
2024/02/11 08:38:54;;;;;;;;;;;;;;;15.60;59.34;98971.06;4995638;28;20004;-84
2024/02/11 08:41:19;;;;;;;;;;;;;;;15.62;59.44;98985.00;5013277;28;19920;-83
2024/02/11 08:43:45;;;;;;;;;;;;;;;15.63;59.46;98980.47;5013195;28;19917;-83
2024/02/11 08:46:10;;;;;;;;;;;;;;;15.65;59.92;98978.41;5013370;28;19956;-83
2024/02/11 08:48:35;;;;;;;;;;;;;;;15.68;59.82;98980.63;5013177;28;19964;-83
2024/02/11 08:51:01;;;;;;;;;;;;;;;15.77;59.96;98977.41;5013204;28;19921;-83
2024/02/11 08:53:27;;;;;;;;;;;;;;;15.76;60.35;98994.44;4995443;28;20302;-83
2024/02/11 08:55:53;;;;;;;;;;;;;;;15.77;60.58;98990.72;4995384;28;20059;-83
2024/02/11 08:58:19;;;;;;;;;;;;;;;15.86;60.13;98980.56;5013082;28;19941;-83
2024/02/11 09:00:44;;;;;;;;;;;;;;;15.92;60.04;98985.00;5013190;28;19914;-82
2024/02/11 09:03:09;;;;;;;;;;;;;;;15.94;60.35;98988.25;5012888;28;19949;-83
2024/02/11 09:05:35;;;;;;;;;;;;;;;15.97;60.73;98981.66;4995392;28;20003;-83
2024/02/11 09:08:01;;;;;;;;;;;;;;;15.89;62.26;98991.59;5012780;28;20338;-82
2024/02/11 09:10:26;;;;;;;;;;;;;;;15.92;61.91;98985.00;5012818;28;19940;-82
2024/02/11 09:12:51;;;;;;;;;;;;;;;15.85;61.96;98985.09;5012745;28;20394;-82
2024/02/11 09:15:17;;;;;;;;;;;;;;;15.83;61.85;99000.47;5012758;28;19915;-83
2024/02/11 09:17:43;;;;;;;;;;;;;;;15.81;62.12;98997.22;4995027;28;19914;-83
2024/02/11 09:20:13;;;;;;;;;;;;;;;15.85;61.70;98995.72;4994943;28;19914;-83
2024/02/11 09:22:39;;;;;;;;;;;;;;;15.89;61.08;98996.09;5012540;28;19921;-83
2024/02/11 09:25:06;;;;;;;;;;;;;;;15.89;61.71;99002.22;5012493;28;19914;-83
2024/02/11 09:27:32;;;;;;;;;;;;;;;16.03;60.85;99002.06;5012637;28;19921;-83
2024/02/11 09:29:57;;;;;;;;;;;;;;;15.98;61.32;98988.59;5012431;28;19913;-83
2024/02/11 09:32:23;;;;;;;;;;;;;;;16.04;60.86;98969.88;4994718;28;20387;-83
2024/02/11 09:34:50;;;;;;;;;;;;;;;16.09;61.10;98958.53;5012321;28;19913;-83
2024/02/11 09:37:15;;;;;;;;;;;;;;;16.16;61.13;98937.94;5012331;28;19982;-82
2024/02/11 09:39:42;;;;;;;;;;;;;;;16.32;60.52;98915.97;4994730;28;19917;-83
2024/02/11 09:42:13;;;;;;;;;;;;;;;16.44;60.00;98895.50;5012183;28;19920;-83
2024/02/11 09:44:39;;;;;;;;;;;;;;;16.55;59.36;98872.53;5012245;28;19936;-82
2024/02/11 09:47:05;;;;;;;;;;;;;;;16.55;59.14;98864.56;4994412;28;19971;-82
2024/02/11 09:49:31;;;;;;;;;;;;;;;16.64;59.08;98871.16;4994957;28;19914;-83
2024/02/11 09:52:00;;;;;;;;;;;;;;;16.78;58.85;98845.88;5011908;28;19917;-83
2024/02/11 09:54:27;;;;;;;;;;;;;;;16.96;58.13;98846.78;4992912;28;19918;-82
2024/02/11 09:56:52;;;;;;;;;;;;;;;17.12;57.64;98854.06;5012147;28;19914;-82
2024/02/11 09:59:18;;;;;;;;;;;;;;;17.13;57.51;98864.50;4994675;28;19968;-82
2024/02/11 10:01:43;;;;;;;;;;;;;;;17.15;57.52;98875.72;4994866;28;20375;-83
2024/02/11 10:04:10;;;;;;;;;;;;;;;17.08;56.64;98888.38;5012167;28;19920;-83
2024/02/11 10:06:41;;;;;;;;;;;;;;;17.21;57.18;98857.97;4994790;28;19913;-83
2024/02/11 10:09:12;;;;;;;;;;;;;;;17.43;56.74;98863.44;5012207;28;20394;-82
2024/02/11 10:11:40;;;;;;;;;;;;;;;17.42;56.40;98849.28;4994555;28;20378;-82
2024/02/11 10:14:13;;;;;;;;;;;;;;;17.50;56.51;98844.63;4994091;28;19917;-82
2024/02/11 10:16:39;;;;;;;;;;;;;;;17.60;56.06;98834.94;5011901;28;19914;-83
2024/02/11 10:19:05;;;;;;;;;;;;;;;17.75;55.82;98840.56;4994246;28;19913;-83
2024/02/11 10:21:31;;;;;;;;;;;;;;;17.77;55.63;98826.97;5011547;28;19920;-82
2024/02/11 10:23:56;;;;;;;;;;;;;;;17.78;55.48;98809.91;4993956;28;19917;-83
2024/02/11 10:26:22;;;;;;;;;;;;;;;17.70;55.58;98808.44;4994055;28;20338;-83
2024/02/11 10:28:48;;;;;;;;;;;;;;;17.78;55.35;98810.72;4994074;28;19972;-82
2024/02/11 10:31:13;;;;;;;;;;;;;;;17.71;55.27;98807.38;4994049;28;19913;-82
2024/02/11 10:33:39;;;;;;;;;;;;;;;17.78;55.19;98792.00;5011611;28;19921;-82
2024/02/11 10:36:06;;;;;;;;;;;;;;;17.93;54.72;98796.81;5011609;28;20409;-82
2024/02/11 10:38:32;;;;;;;;;;;;;;;17.97;54.09;98802.47;5011731;28;19971;-83
2024/02/11 10:41:03;;;;;;;;;;;;;;;17.87;53.91;98794.31;5011562;28;19921;-82
2024/02/11 10:43:33;;;;;;;;;;;;;;;17.88;54.25;98785.25;5011518;28;19913;-82
2024/02/11 10:45:59;;;;;;;;;;;;;;;17.84;54.17;98779.59;4993954;28;19913;-83
2024/02/11 10:48:24;;;;;;;;;;;;;;;17.79;54.38;98766.13;4993827;28;20437;-83
2024/02/11 10:50:54;;;;;;;;;;;;;;;17.83;54.37;98764.59;4993864;28;19914;-83
2024/02/11 10:53:22;;;;;;;;;;;;;;;17.78;54.14;98759.97;5011469;28;19952;-83
2024/02/11 10:55:49;;;;;;;;;;;;;;;17.81;54.16;98755.19;5011141;28;19920;-83
2024/02/11 10:58:16;;;;;;;;;;;;;;;17.87;54.43;98733.69;5011226;28;20060;-83
2024/02/11 11:00:42;;;;;;;;;;;;;;;18.03;54.16;98735.53;4995439;28;20128;-83
2024/02/11 11:03:09;;;;;;;;;;;;;;;18.03;54.13;98738.19;4997466;28;19913;-83
2024/02/11 11:05:36;;;;;;;;;;;;;;;17.99;54.42;98755.78;5015043;28;20391;-83
2024/02/11 11:08:02;;;;;;;;;;;;;;;18.07;54.40;98742.00;5014950;28;20451;-83
2024/02/11 11:10:35;;;;;;;;;;;;;;;18.12;54.21;98745.78;5014740;28;20051;-83
2024/02/11 11:13:00;;;;;;;;;;;;;;;18.21;54.12;98747.00;4997182;28;20493;-83
2024/02/11 11:15:31;;;;;;;;;;;;;;;18.30;53.91;98740.16;4997249;28;19957;-83
2024/02/11 11:17:58;;;;;;;;;;;;;;;18.28;53.83;98743.06;4997277;28;20315;-83
2024/02/11 11:20:24;;;;;;;;;;;;;;;18.42;53.82;98749.69;5014704;28;19921;-82
2024/02/11 11:22:50;;;;;;;;;;;;;;;18.37;53.84;98741.59;5014434;28;19913;-82
2024/02/11 11:25:18;;;;;;;;;;;;;;;18.33;53.85;98734.31;5014728;28;20035;-83
2024/02/11 11:27:43;;;;;;;;;;;;;;;18.38;54.08;98721.03;5015087;28;19949;-83
2024/02/11 11:30:10;;;;;;;;;;;;;;;18.36;54.41;98718.59;5015080;28;20478;-83
2024/02/11 11:32:41;;;;;;;;;;;;;;;18.41;54.25;98721.31;4997354;28;20322;-83
2024/02/11 11:35:07;;;;;;;;;;;;;;;18.39;54.50;98742.16;4997265;28;20000;-82
2024/02/11 11:37:32;;;;;;;;;;;;;;;18.39;54.75;98750.16;5014753;28;19957;-83
2024/02/11 11:39:57;;;;;;;;;;;;;;;18.37;54.58;98788.88;4997085;28;20386;-83
2024/02/11 11:42:23;;;;;;;;;;;;;;;18.06;55.21;98771.63;5014440;28;19968;-83
2024/02/11 11:44:48;;;;;;;;;;;;;;;17.88;55.30;98786.06;4996780;28;20359;-83
2024/02/11 11:47:13;;;;;;;;;;;;;;;17.77;55.60;98795.75;5014063;28;19913;-83
2024/02/11 11:49:39;;;;;;;;;;;;;;;17.58;56.03;98775.63;5014170;28;19914;-83
2024/02/11 11:52:08;;;;;;;;;;;;;;;17.55;55.81;98772.66;5014387;28;19963;-83
2024/02/11 11:54:34;;;;;;;;;;;;;;;17.51;55.79;98758.97;5014283;28;19913;-83
2024/02/11 11:56:59;;;;;;;;;;;;;;;17.50;55.85;98765.38;5013973;28;19910;-83
2024/02/11 11:59:25;;;;;;;;;;;;;;;17.49;55.81;98753.06;5014007;28;19913;-83
2024/02/11 12:01:55;;;;;;;;;;;;;;;17.57;55.94;98754.53;5014051;28;19915;-83
2024/02/11 12:04:21;;;;;;;;;;;;;;;17.55;55.93;98746.75;5014110;28;19913;-83
2024/02/11 12:06:47;;;;;;;;;;;;;;;17.72;55.39;98757.47;5014034;28;19918;-83
2024/02/11 12:09:15;;;;;;;;;;;;;;;17.74;55.17;98774.84;4996079;28;19921;-83
2024/02/11 12:11:41;;;;;;;;;;;;;;;17.70;55.13;98744.38;5012819;28;20000;-83
2024/02/11 12:14:07;;;;;;;;;;;;;;;17.75;54.90;98749.78;5013687;28;20012;-83
2024/02/11 12:16:33;;;;;;;;;;;;;;;17.64;55.15;98726.63;4996204;28;20412;-83
2024/02/11 12:19:00;;;;;;;;;;;;;;;17.56;55.45;98736.91;5013633;28;19913;-83
2024/02/11 12:21:26;;;;;;;;;;;;;;;17.56;55.21;98724.34;4996050;28;19913;-83
2024/02/11 12:23:53;;;;;;;;;;;;;;;17.60;55.28;98730.81;4996095;28;19918;-83
2024/02/11 12:26:20;;;;;;;;;;;;;;;17.70;55.06;98741.69;5013550;28;19913;-83
2024/02/11 12:28:49;;;;;;;;;;;;;;;17.86;54.73;98739.28;5013443;28;20346;-83
2024/02/11 12:31:15;;;;;;;;;;;;;;;17.92;54.41;98730.28;4995834;28;19913;-83
2024/02/11 12:33:41;;;;;;;;;;;;;;;18.03;53.91;98743.53;5013186;28;19917;-83
2024/02/11 12:36:10;;;;;;;;;;;;;;;18.14;53.67;98719.63;4995790;28;19913;-83
2024/02/11 12:38:41;;;;;;;;;;;;;;;18.21;53.45;98747.78;5013436;28;19924;-82
2024/02/11 12:41:07;;;;;;;;;;;;;;;18.20;53.37;98726.66;5013317;28;19913;-83
2024/02/11 12:43:34;;;;;;;;;;;;;;;18.24;53.35;98727.78;5013317;28;19914;-82